createdAt,value
2019-02-21T00:01:25.890Z,94331.59
2019-02-21T00:03:58.826Z,94336.75
2019-02-21T00:06:31.785Z,94333.55
2019-02-21T00:09:05.372Z,94333.67
2019-02-21T00:11:38.306Z,94336.98
2019-02-21T00:14:11.606Z,94329.23
2019-02-21T00:16:44.534Z,94331.96
2019-02-21T00:19:17.345Z,94327.91
2019-02-21T00:21:57.649Z,94327.12
2019-02-21T00:24:33.225Z,94332.16
2019-02-21T00:27:06.112Z,94334.77
2019-02-21T00:29:51.553Z,94336.69
2019-02-21T00:32:25.705Z,94332.02
2019-02-21T00:35:09.185Z,94334.30
2019-02-21T00:37:42.045Z,94331.67
2019-02-21T00:40:14.965Z,94330.42
2019-02-21T00:42:47.865Z,94335.15
2019-02-21T00:45:20.967Z,94335.36
2019-02-21T00:47:53.750Z,94336.30
2019-02-21T00:50:26.985Z,94335.52
2019-02-21T00:52:59.965Z,94337.13
2019-02-21T00:55:32.766Z,94328.70
2019-02-21T00:58:05.565Z,94336.33
2019-02-21T01:00:46.184Z,94327.88
2019-02-21T01:03:13.208Z,94330.50
2019-02-21T01:05:46.126Z,94327.66
2019-02-21T01:08:19.368Z,94325.63
2019-02-21T01:10:52.906Z,94330.03
2019-02-21T01:13:25.805Z,94328.25
2019-02-21T01:15:59.205Z,94327.24
2019-02-21T01:18:32.369Z,94332.02
2019-02-21T01:21:05.430Z,94328.80
2019-02-21T01:23:38.644Z,94341.57
2019-02-21T01:26:11.725Z,94344.37
2019-02-21T01:28:44.705Z,94338.65
2019-02-21T01:31:17.809Z,94343.06
2019-02-21T01:33:50.804Z,94348.47
2019-02-21T01:36:24.645Z,94341.06
2019-02-21T01:38:57.693Z,94344.37
2019-02-21T01:41:30.605Z,94344.16
2019-02-21T01:44:04.688Z,94338.23
2019-02-21T01:46:40.686Z,94333.90
2019-02-21T01:49:14.804Z,94334.72
2019-02-21T01:51:47.665Z,94334.16
2019-02-21T01:54:20.708Z,94331.75
2019-02-21T01:56:53.605Z,94335.95
2019-02-21T01:59:26.704Z,94344.87
2019-02-21T02:01:59.585Z,94338.58
2019-02-21T02:04:32.725Z,94347.80
2019-02-21T02:07:05.486Z,94344.13
2019-02-21T02:09:39.365Z,94344.55
2019-02-21T02:12:16.545Z,94351.02
2019-02-21T02:14:49.685Z,94350.25
2019-02-21T02:17:22.666Z,94351.19
2019-02-21T02:19:55.645Z,94355.72
2019-02-21T02:22:28.565Z,94355.59
2019-02-21T02:25:01.902Z,94354.53
2019-02-21T02:27:34.965Z,94360.90
2019-02-21T02:30:07.987Z,94367.88
2019-02-21T02:32:40.747Z,94368.90
2019-02-21T02:35:13.765Z,94364.67
2019-02-21T02:37:46.707Z,94366.63
2019-02-21T02:40:20.007Z,94368.86
2019-02-21T02:42:52.986Z,94372.73
2019-02-21T02:45:26.292Z,94367.40
2019-02-21T02:47:59.209Z,94371.84
2019-02-21T02:50:32.397Z,94373.56
2019-02-21T02:53:05.405Z,94371.62
2019-02-21T02:55:38.426Z,94370.91
2019-02-21T02:58:11.245Z,94369.74
2019-02-21T03:00:44.009Z,94373.17
2019-02-21T03:03:16.945Z,94374.91
2019-02-21T03:05:49.984Z,94373.09
2019-02-21T03:08:22.947Z,94372.58
2019-02-21T03:10:55.865Z,94372.06
2019-02-21T03:13:28.725Z,94372.14
2019-02-21T03:16:01.487Z,94375.84
2019-02-21T03:18:34.865Z,94375.23
2019-02-21T03:21:07.666Z,94376.39
2019-02-21T03:23:40.552Z,94375.84
2019-02-21T03:26:13.545Z,94377.07
2019-02-21T03:28:46.485Z,94379.61
2019-02-21T03:31:19.908Z,94381.42
2019-02-21T03:33:52.826Z,94389.38
2019-02-21T03:36:25.746Z,94384.63
2019-02-21T03:38:58.676Z,94387.61
2019-02-21T03:41:31.783Z,94392.05
2019-02-21T03:44:05.145Z,94385.63
2019-02-21T03:46:38.052Z,94392.01
2019-02-21T03:49:10.973Z,94395.50
2019-02-21T03:51:44.067Z,94397.25
2019-02-21T03:54:16.865Z,94399.40
2019-02-21T03:56:52.704Z,94399.28
2019-02-21T03:59:25.825Z,94395.77
2019-02-21T04:02:05.438Z,94404.05
2019-02-21T04:04:33.435Z,94403.31
2019-02-21T04:07:06.546Z,94407.84
2019-02-21T04:09:39.305Z,94407.97
2019-02-21T04:12:12.226Z,94407.47
2019-02-21T04:14:45.008Z,94403.70
2019-02-21T04:17:18.386Z,94398.50
2019-02-21T04:19:51.284Z,94401.50
2019-02-21T04:22:26.429Z,94394.97
2019-02-21T04:24:59.325Z,94397.98
2019-02-21T04:27:32.129Z,94399.41
2019-02-21T04:30:05.026Z,94399.47
2019-02-21T04:32:37.905Z,94399.25
2019-02-21T04:35:10.888Z,94395.23
2019-02-21T04:37:45.027Z,94395.86
2019-02-21T04:40:17.804Z,94394.16
2019-02-21T04:42:52.945Z,94393.65
2019-02-21T04:45:25.967Z,94392.25
2019-02-21T04:47:58.845Z,94392.74
2019-02-21T04:50:32.065Z,94388.23
2019-02-21T04:53:16.107Z,94393.05
2019-02-21T04:55:49.125Z,94393.84
2019-02-21T04:58:22.625Z,94392.73
2019-02-21T05:00:55.485Z,94389.83
2019-02-21T05:03:28.526Z,94390.63
2019-02-21T05:06:01.406Z,94392.03
2019-02-21T05:08:34.385Z,94390.33
2019-02-21T05:11:07.164Z,94393.05
2019-02-21T05:13:40.105Z,94389.02
2019-02-21T05:16:12.885Z,94389.11
2019-02-21T05:18:46.924Z,94384.08
2019-02-21T05:21:20.965Z,94385.59
2019-02-21T05:23:53.965Z,94386.60
2019-02-21T05:26:29.586Z,94387.09
2019-02-21T05:29:03.947Z,94386.81
2019-02-21T05:32:06.947Z,94388.61
2019-02-21T05:34:47.545Z,94389.80
2019-02-21T05:37:29.205Z,94400.70
2019-02-21T05:40:07.727Z,94391.48
2019-02-21T05:42:54.525Z,94391.84
2019-02-21T05:45:32.251Z,94393.22
2019-02-21T05:48:09.705Z,94385.89
2019-02-21T05:51:00.475Z,94394.33
2019-02-21T05:53:35.850Z,94392.31
2019-02-21T05:56:20.606Z,94395.25
2019-02-21T05:59:09.265Z,94397.28
2019-02-21T06:01:46.926Z,94399.30
2019-02-21T06:04:38.645Z,94392.63
2019-02-21T06:07:16.086Z,94399.50
2019-02-21T06:09:50.505Z,94400.10
2019-02-21T06:12:33.129Z,94400.52
2019-02-21T06:15:01.056Z,94398.87
2019-02-21T06:17:54.048Z,94395.32
2019-02-21T06:20:33.675Z,94405.19
2019-02-21T06:23:08.486Z,94406.28
2019-02-21T06:25:51.078Z,94413.97
2019-02-21T06:28:24.507Z,94415.95
2019-02-21T06:30:59.052Z,94415.19
2019-02-21T06:33:32.538Z,94411.64
2019-02-21T06:36:07.198Z,94419.55
2019-02-21T06:38:41.263Z,94417.65
2019-02-21T06:41:15.166Z,94424.58
2019-02-21T06:43:49.128Z,94422.98
2019-02-21T06:46:21.987Z,94427.21
2019-02-21T06:48:54.953Z,94423.28
2019-02-21T06:51:27.806Z,94424.05
2019-02-21T06:54:01.014Z,94427.27
2019-02-21T06:56:33.973Z,94426.34
2019-02-21T06:59:07.025Z,94432.33
2019-02-21T07:01:45.292Z,94436.96
2019-02-21T07:04:18.326Z,94436.16
2019-02-21T07:06:56.782Z,94445.71
2019-02-21T07:09:29.406Z,94438.30
2019-02-21T07:12:02.459Z,94436.45
2019-02-21T07:14:37.269Z,94435.34
2019-02-21T07:17:10.147Z,94442.29
2019-02-21T07:19:43.985Z,94446.57
2019-02-21T07:22:20.073Z,94441.61
2019-02-21T07:24:54.176Z,94448.25
2019-02-21T07:27:27.865Z,94446.77
2019-02-21T07:30:00.967Z,94447.57
2019-02-21T07:32:36.011Z,94443.31
2019-02-21T07:35:09.054Z,94447.64
2019-02-21T07:37:42.363Z,94450.84
2019-02-21T07:40:20.054Z,94450.93
2019-02-21T07:42:50.027Z,94446.23
2019-02-21T07:45:22.967Z,94447.23
2019-02-21T07:47:55.851Z,94454.95
2019-02-21T07:50:30.747Z,94451.91
2019-02-21T07:53:03.348Z,94452.13
2019-02-21T07:55:38.428Z,94449.64
2019-02-21T07:58:12.887Z,94448.61
2019-02-21T08:00:45.866Z,94442.86
2019-02-21T08:03:29.790Z,94448.70
2019-02-21T08:05:54.344Z,94444.58
2019-02-21T08:08:27.150Z,94444.77
2019-02-21T08:11:00.147Z,94446.62
2019-02-21T08:13:32.967Z,94445.44
2019-02-21T08:16:06.868Z,94444.23
2019-02-21T08:18:39.787Z,94445.15
2019-02-21T08:21:13.807Z,94440.22
2019-02-21T08:23:50.742Z,94450.37
2019-02-21T08:26:23.767Z,94444.81
2019-02-21T08:28:56.704Z,94447.80
2019-02-21T08:31:29.787Z,94441.99
2019-02-21T08:34:04.542Z,94439.13
2019-02-21T08:36:38.092Z,94443.70
2019-02-21T08:39:11.141Z,94436.75
2019-02-21T08:41:44.232Z,94439.88
2019-02-21T08:44:17.246Z,94440.98
2019-02-21T08:46:50.344Z,94441.70
2019-02-21T08:49:23.484Z,94440.02
2019-02-21T08:51:56.388Z,94443.92
2019-02-21T08:54:29.352Z,94439.84
2019-02-21T08:57:03.217Z,94441.08
2019-02-21T08:59:36.426Z,94437.50
2019-02-21T09:07:56.628Z,94432.53
2019-02-21T09:10:29.545Z,94431.03
2019-02-21T09:13:02.457Z,94436.23
2019-02-21T09:15:35.785Z,94426.91
2019-02-21T09:18:08.745Z,94427.22
2019-02-21T09:20:41.625Z,94429.41
2019-02-21T09:23:15.880Z,94430.78
2019-02-21T09:25:49.700Z,94434.80
2019-02-21T09:28:24.565Z,94434.67
2019-02-21T09:30:57.945Z,94426.08
2019-02-21T09:33:30.984Z,94424.39
2019-02-21T09:36:03.907Z,94428.30
2019-02-21T09:38:36.671Z,94429.44
2019-02-21T09:41:10.185Z,94426.39
2019-02-21T09:43:43.045Z,94421.86
2019-02-21T09:46:15.906Z,94431.13
2019-02-21T09:48:49.082Z,94424.31
2019-02-21T09:51:22.044Z,94427.74
2019-02-21T09:53:54.865Z,94427.80
2019-02-21T09:56:30.688Z,94431.70
2019-02-21T09:59:02.299Z,94438.42
2019-02-21T10:01:35.485Z,94431.00
2019-02-21T10:04:08.365Z,94422.59
2019-02-21T10:06:41.454Z,94427.73
2019-02-21T10:09:14.425Z,94431.85
2019-02-21T10:11:47.307Z,94432.94
2019-02-21T10:14:21.594Z,94429.20
2019-02-21T10:16:54.645Z,94420.01
2019-02-21T10:19:27.526Z,94424.02
2019-02-21T10:22:00.799Z,94415.38
2019-02-21T10:24:33.924Z,94417.66
2019-02-21T10:27:06.985Z,94412.20
2019-02-21T10:29:39.950Z,94409.75
2019-02-21T10:32:13.344Z,94406.12
2019-02-21T10:34:46.576Z,94403.09
2019-02-21T10:37:19.465Z,94395.02
2019-02-21T10:39:52.358Z,94393.03
2019-02-21T10:42:25.485Z,94394.98
2019-02-21T10:44:59.006Z,94387.78
2019-02-21T10:47:31.745Z,94390.56
2019-02-21T10:50:04.584Z,94374.59
2019-02-21T10:52:37.375Z,94380.98
2019-02-21T10:55:10.213Z,94376.77
2019-02-21T10:57:45.367Z,94373.45
2019-02-21T11:00:20.565Z,94370.20
2019-02-21T11:02:52.825Z,94369.05
2019-02-21T11:05:25.985Z,94364.52
2019-02-21T11:07:58.825Z,94360.24
2019-02-21T11:10:33.325Z,94357.40
2019-02-21T11:13:06.304Z,94362.11
2019-02-21T11:15:41.922Z,94358.88
2019-02-21T11:18:15.085Z,94355.13
2019-02-21T11:20:48.084Z,94345.69
2019-02-21T11:23:21.026Z,94348.05
2019-02-21T11:25:54.025Z,94339.63
2019-02-21T11:28:27.273Z,94342.33
2019-02-21T11:31:00.253Z,94340.53
2019-02-21T11:33:33.085Z,94332.09
2019-02-21T11:36:05.932Z,94339.11
2019-02-21T11:38:38.804Z,94333.30
2019-02-21T11:41:11.806Z,94325.72
2019-02-21T11:43:44.784Z,94321.48
2019-02-21T11:46:17.964Z,94326.77
2019-02-21T11:48:50.967Z,94328.74
2019-02-21T11:51:23.945Z,94330.02
2019-02-21T11:53:56.864Z,94325.58
2019-02-21T11:56:30.723Z,94318.77
2019-02-21T11:59:03.593Z,94319.83
2019-02-21T12:01:36.408Z,94312.72
2019-02-21T12:04:09.144Z,94313.72
2019-02-21T12:06:42.027Z,94317.89
2019-02-21T12:09:14.925Z,94312.47
2019-02-21T12:11:47.904Z,94314.73
2019-02-21T12:14:20.731Z,94309.72
2019-02-21T12:16:54.252Z,94306.58
2019-02-21T12:19:27.588Z,94305.19
2019-02-21T12:22:00.525Z,94303.11
2019-02-21T12:24:34.013Z,94298.45
2019-02-21T12:27:06.992Z,94304.00
2019-02-21T12:29:39.948Z,94298.86
2019-02-21T12:32:13.076Z,94298.95
2019-02-21T12:34:46.648Z,94300.17
2019-02-21T12:37:19.725Z,94294.56
2019-02-21T12:39:52.568Z,94296.12
2019-02-21T12:42:25.480Z,94291.33
2019-02-21T12:44:58.684Z,94288.73
2019-02-21T12:47:31.944Z,94285.00
2019-02-21T12:50:04.846Z,94285.14
2019-02-21T12:52:38.246Z,94283.42
2019-02-21T12:55:11.168Z,94278.44
2019-02-21T12:57:44.348Z,94278.73
2019-02-21T13:00:17.664Z,94279.44
2019-02-21T13:02:50.667Z,94278.58
2019-02-21T13:05:23.985Z,94274.77
2019-02-21T13:07:57.029Z,94264.75
2019-02-21T13:10:29.865Z,94265.58
2019-02-21T13:13:02.804Z,94257.50
2019-02-21T13:15:35.825Z,94261.54
2019-02-21T13:18:15.834Z,94265.64
2019-02-21T13:20:44.306Z,94260.83
2019-02-21T13:23:17.985Z,94267.02
2019-02-21T13:25:50.869Z,94261.13
2019-02-21T13:28:23.790Z,94252.72
2019-02-21T13:30:59.487Z,94256.05
2019-02-21T13:33:31.673Z,94253.18
2019-02-21T13:36:04.466Z,94256.17
2019-02-21T13:38:37.445Z,94264.14
2019-02-21T13:41:10.947Z,94256.70
2019-02-21T13:43:44.186Z,94259.30
2019-02-21T13:46:17.304Z,94260.83
2019-02-21T13:48:50.483Z,94255.85
2019-02-21T13:51:23.405Z,94259.73
2019-02-21T13:53:56.535Z,94258.65
2019-02-21T13:56:29.345Z,94260.03
2019-02-21T13:59:02.578Z,94255.84
2019-02-21T14:01:36.445Z,94258.46
2019-02-21T14:04:09.385Z,94250.52
2019-02-21T14:06:42.409Z,94256.73
2019-02-21T14:09:15.387Z,94255.61
2019-02-21T14:11:48.347Z,94260.75
2019-02-21T14:14:21.874Z,94249.61
2019-02-21T14:16:54.765Z,94257.15
2019-02-21T14:19:27.705Z,94253.08
2019-02-21T14:22:01.265Z,94254.70
2019-02-21T14:24:37.137Z,94248.75
2019-02-21T14:27:09.167Z,94250.01
2019-02-21T14:29:42.143Z,94247.52
2019-02-21T14:32:15.605Z,94237.83
2019-02-21T14:34:48.584Z,94239.05
2019-02-21T14:37:21.545Z,94238.99
2019-02-21T14:39:54.783Z,94231.82
2019-02-21T14:42:27.909Z,94236.79
2019-02-21T14:45:01.277Z,94230.86
2019-02-21T14:47:34.488Z,94233.80
2019-02-21T14:50:07.574Z,94232.55
2019-02-21T14:52:40.925Z,94228.08
2019-02-21T14:55:13.906Z,94228.33
2019-02-21T14:57:47.306Z,94225.91
2019-02-21T15:00:20.624Z,94225.25
2019-02-21T15:02:53.845Z,94222.23
2019-02-21T15:05:26.845Z,94227.31
2019-02-21T15:07:59.845Z,94223.30
2019-02-21T15:10:32.804Z,94226.30
2019-02-21T15:13:05.747Z,94218.50
2019-02-21T15:15:38.532Z,94225.23
2019-02-21T15:18:11.509Z,94222.09
2019-02-21T15:20:44.786Z,94219.16
2019-02-21T15:23:17.746Z,94220.51
2019-02-21T15:25:50.785Z,94221.20
2019-02-21T15:28:23.685Z,94220.77
2019-02-21T15:30:56.485Z,94220.91
2019-02-21T15:33:29.504Z,94218.97
2019-02-21T15:36:02.368Z,94218.36
2019-02-21T15:38:35.118Z,94220.89
2019-02-21T15:41:08.045Z,94226.89
2019-02-21T15:43:40.905Z,94223.36
2019-02-21T15:46:13.704Z,94219.77
2019-02-21T15:48:46.545Z,94224.28
2019-02-21T15:51:19.434Z,94228.83
2019-02-21T15:53:52.223Z,94225.59
2019-02-21T15:56:25.168Z,94225.16
2019-02-21T15:58:58.066Z,94225.71
2019-02-21T16:01:30.985Z,94224.59
2019-02-21T16:04:04.105Z,94230.86
2019-02-21T16:06:39.297Z,94234.83
2019-02-21T16:09:16.257Z,94238.80
2019-02-21T16:11:46.538Z,94236.51
2019-02-21T16:14:19.470Z,94241.17
2019-02-21T16:16:52.630Z,94240.42
2019-02-21T16:19:25.549Z,94239.67
2019-02-21T16:21:58.520Z,94239.42
2019-02-21T16:24:31.465Z,94237.39
2019-02-21T16:27:04.384Z,94238.17
2019-02-21T16:29:37.206Z,94233.30
2019-02-21T16:32:10.086Z,94235.15
2019-02-21T16:34:43.095Z,94237.58
2019-02-21T16:37:16.045Z,94235.53
2019-02-21T16:39:49.025Z,94234.42
2019-02-21T16:42:22.108Z,94235.74
2019-02-21T16:44:55.094Z,94236.78
2019-02-21T16:47:27.984Z,94240.64
2019-02-21T16:50:00.770Z,94235.08
2019-02-21T16:52:33.685Z,94242.17
2019-02-21T16:55:08.753Z,94238.52
2019-02-21T16:57:41.165Z,94238.56
2019-02-21T17:00:14.305Z,94243.21
2019-02-21T17:02:47.125Z,94240.39
2019-02-21T17:05:19.984Z,94243.14
2019-02-21T17:07:52.851Z,94244.83
2019-02-21T17:10:25.705Z,94244.07
2019-02-21T17:12:58.965Z,94251.08
2019-02-21T17:15:31.745Z,94247.22
2019-02-21T17:18:04.650Z,94254.53
2019-02-21T17:20:37.508Z,94257.80
2019-02-21T17:23:10.395Z,94260.47
2019-02-21T17:25:43.286Z,94259.14
2019-02-21T17:28:16.271Z,94261.77
2019-02-21T17:30:49.138Z,94264.36
2019-02-21T17:33:22.130Z,94262.55
2019-02-21T17:35:55.248Z,94266.41
2019-02-21T17:38:28.089Z,94267.81
2019-02-21T17:41:01.027Z,94264.43
2019-02-21T17:43:33.928Z,94275.73
2019-02-21T17:46:06.807Z,94272.75
2019-02-21T17:48:39.824Z,94277.75
2019-02-21T17:51:12.847Z,94287.95
2019-02-21T17:53:45.787Z,94283.44
2019-02-21T17:56:18.700Z,94285.59
2019-02-21T17:58:51.567Z,94284.95
2019-02-21T18:01:24.544Z,94286.23
2019-02-21T18:03:57.505Z,94275.19
2019-02-21T18:06:30.625Z,94277.98
2019-02-21T18:09:05.404Z,94282.39
2019-02-21T18:11:38.266Z,94292.36
2019-02-21T18:14:11.033Z,94283.30
2019-02-21T18:16:43.811Z,94293.16
2019-02-21T18:19:21.668Z,94288.15
2019-02-21T18:21:54.528Z,94295.19
2019-02-21T18:24:27.586Z,94304.97
2019-02-21T18:27:00.607Z,94302.92
2019-02-21T18:29:34.384Z,94293.77
2019-02-21T18:32:07.325Z,94294.22
2019-02-21T18:34:40.445Z,94296.53
2019-02-21T18:37:14.945Z,94286.78
2019-02-21T18:39:48.247Z,94294.17
2019-02-21T18:42:21.195Z,94292.59
2019-02-21T18:44:54.233Z,94293.14
2019-02-21T18:47:27.511Z,94292.07
2019-02-21T18:50:00.533Z,94289.69
2019-02-21T18:52:33.585Z,94284.60
2019-02-21T18:55:06.485Z,94281.00
2019-02-21T18:57:39.503Z,94271.78
2019-02-21T19:00:12.455Z,94265.53
2019-02-21T19:02:45.843Z,94260.81
2019-02-21T19:05:18.867Z,94250.53
2019-02-21T19:08:00.818Z,94249.98
2019-02-21T19:10:26.505Z,94244.77
2019-02-21T19:13:00.034Z,94244.40
2019-02-21T19:15:32.973Z,94239.76
2019-02-21T19:18:05.781Z,94243.06
2019-02-21T19:20:38.777Z,94234.69
2019-02-21T19:23:12.136Z,94229.00
2019-02-21T19:25:44.960Z,94230.16
2019-02-21T19:28:17.986Z,94225.61
2019-02-21T19:30:51.187Z,94218.05
2019-02-21T19:33:24.165Z,94228.36
2019-02-21T19:35:57.164Z,94222.48
2019-02-21T19:38:30.071Z,94220.64
2019-02-21T19:41:02.985Z,94220.05
2019-02-21T19:43:35.859Z,94219.48
2019-02-21T19:46:09.886Z,94220.39
2019-02-21T19:48:42.688Z,94219.59
2019-02-21T19:51:15.810Z,94216.72
2019-02-21T19:53:49.047Z,94214.15
2019-02-21T19:56:22.064Z,94218.27
2019-02-21T19:58:54.939Z,94216.20
2019-02-21T20:01:27.816Z,94207.89
2019-02-21T20:04:01.347Z,94210.45
2019-02-21T20:06:35.249Z,94213.61
2019-02-21T20:09:08.206Z,94205.13
2019-02-21T20:11:41.048Z,94205.44
2019-02-21T20:14:14.010Z,94192.45
2019-02-21T20:16:47.130Z,94190.86
2019-02-21T20:19:19.931Z,94192.05
2019-02-21T20:21:54.527Z,94189.26
2019-02-21T20:24:27.567Z,94181.08
2019-02-21T20:27:00.663Z,94192.95
2019-02-21T20:29:33.784Z,94189.92
2019-02-21T20:32:06.712Z,94190.71
2019-02-21T20:34:40.428Z,94191.42
2019-02-21T20:37:13.331Z,94187.12
2019-02-21T20:39:47.148Z,94177.87
2019-02-21T20:42:20.227Z,94179.23
2019-02-21T20:44:53.054Z,94174.67
2019-02-21T20:47:26.169Z,94176.72
2019-02-21T20:49:58.970Z,94183.78
2019-02-21T20:52:31.817Z,94180.23
2019-02-21T20:55:04.765Z,94177.00
2019-02-21T20:57:37.765Z,94183.31
2019-02-21T21:00:10.954Z,94182.30
2019-02-21T21:02:43.776Z,94182.75
2019-02-21T21:05:16.668Z,94178.16
2019-02-21T21:07:50.077Z,94184.60
2019-02-21T21:10:23.008Z,94193.92
2019-02-21T21:12:55.827Z,94193.41
2019-02-21T21:15:29.066Z,94193.89
2019-02-21T21:18:02.042Z,94187.44
2019-02-21T21:20:34.865Z,94190.06
2019-02-21T21:23:07.830Z,94193.42
2019-02-21T21:25:40.865Z,94195.62
2019-02-21T21:28:13.965Z,94193.87
2019-02-21T21:30:46.893Z,94190.38
2019-02-21T21:33:19.847Z,94188.03
2019-02-21T21:35:53.108Z,94184.69
2019-02-21T21:38:26.051Z,94187.63
2019-02-21T21:40:59.005Z,94189.78
2019-02-21T21:43:31.847Z,94191.77
2019-02-21T21:46:04.824Z,94190.14
2019-02-21T21:48:37.866Z,94188.51
2019-02-21T21:51:10.639Z,94184.92
2019-02-21T21:53:43.590Z,94192.91
2019-02-21T21:56:16.408Z,94193.22
2019-02-21T21:58:49.248Z,94186.73
2019-02-21T22:01:22.286Z,94195.05
2019-02-21T22:03:55.314Z,94201.17
2019-02-21T22:06:28.264Z,94185.16
2019-02-21T22:09:04.832Z,94192.23
2019-02-21T22:11:36.105Z,94196.37
2019-02-21T22:14:08.986Z,94194.30
2019-02-21T22:16:42.024Z,94193.70
2019-02-21T22:19:14.944Z,94207.53
2019-02-21T22:21:47.744Z,94184.47
2019-02-21T22:24:20.685Z,94205.45
2019-02-21T22:26:53.583Z,94199.59
2019-02-21T22:29:26.905Z,94198.16
2019-02-21T22:31:59.904Z,94194.21
2019-02-21T22:34:32.885Z,94205.14
2019-02-21T22:37:06.026Z,94193.41
2019-02-21T22:39:38.904Z,94187.80
2019-02-21T22:42:11.845Z,94192.83
2019-02-21T22:44:45.245Z,94193.09
2019-02-21T22:47:18.065Z,94185.46
2019-02-21T22:49:51.129Z,94188.38
2019-02-21T22:52:24.484Z,94185.55
2019-02-21T22:55:09.054Z,94184.82
2019-02-21T22:57:32.050Z,94175.83
2019-02-21T23:00:05.084Z,94175.84
2019-02-21T23:02:38.005Z,94183.85
2019-02-21T23:05:11.245Z,94171.59
2019-02-21T23:07:44.113Z,94169.44
2019-02-21T23:10:17.205Z,94179.59
2019-02-21T23:12:50.125Z,94181.58
2019-02-21T23:15:23.205Z,94180.00
2019-02-21T23:17:56.087Z,94175.12
2019-02-21T23:20:28.964Z,94178.16
2019-02-21T23:23:01.925Z,94177.16
2019-02-21T23:25:35.345Z,94182.28
2019-02-21T23:28:08.226Z,94167.41
2019-02-21T23:30:41.105Z,94176.03
2019-02-21T23:33:14.047Z,94170.00
2019-02-21T23:35:46.947Z,94164.72
2019-02-21T23:38:20.284Z,94151.41
2019-02-21T23:40:53.109Z,94164.57
2019-02-21T23:43:26.006Z,94152.96
2019-02-21T23:45:58.965Z,94152.81
2019-02-21T23:48:32.433Z,94156.28
2019-02-21T23:51:05.605Z,94148.97
2019-02-21T23:53:38.585Z,94154.53
2019-02-21T23:56:11.646Z,94142.89
2019-02-21T23:58:44.585Z,94142.02
